Observation data for Roaring Springs on 06/04/2020      Previous  Date       Current Mesonet Observations  Soil Data  Daily Summary Page  Observations in Plain Language
KRRS 040500Z 17006KT 24/16 A2992 RMK A01 T02400161  RH  064%=      5-min Rain = 0
KRRS 040505Z 16005KT 24/16 A2993 RMK A01 T02410161  RH  064%=      5-min Rain = 0
KRRS 040510Z 18007KT 24/16 A2992 RMK A01 T02440161  RH  063%=      5-min Rain = 0
KRRS 040515Z 19007KT 25/16 A2992 RMK A01 T02450161  RH  063%=      5-min Rain = 0
KRRS 040520Z 19006KT 24/16 A2992 RMK A01 T02410161  RH  064%=      5-min Rain = 0
KRRS 040525Z 19006KT 24/16 A2992 RMK A01 T02370161  RH  065%=      5-min Rain = 0
KRRS 040530Z 19007KT 24/16 A2992 RMK A01 T02380161  RH  065%=      5-min Rain = 0
KRRS 040535Z 19007KT 24/16 A2992 RMK A01 T02370161  RH  065%=      5-min Rain = 0
KRRS 040540Z 19007KT 23/16 A2992 RMK A01 T02330161  RH  067%=      5-min Rain = 0
KRRS 040545Z 19007KT 23/16 A2992 RMK A01 T02340161  RH  067%=      5-min Rain = 0
KRRS 040550Z 18007KT 24/16 A2992 RMK A01 T02380161  RH  065%=      5-min Rain = 0
KRRS 040555Z 17007KT 24/16 A2991 RMK A01 T02390161  RH  065%=      5-min Rain = 0
KRRS 040600Z 17007KT 24/16 A2991 RMK A01 T02380162  RH  065%=      5-min Rain = 0
KRRS 040605Z 18008KT 24/16 A2991 RMK A01 T02380162  RH  066%=      5-min Rain = 0
KRRS 040610Z 18008KT 24/16 A2991 RMK A01 T02370163  RH  066%=      5-min Rain = 0
KRRS 040615Z 18008KT 24/16 A299 RMK A01 T02350163  RH  067%=      5-min Rain = 0
KRRS 040620Z 18007KT 24/16 A299 RMK A01 T02350163  RH  067%=      5-min Rain = 0
KRRS 040625Z 18007KT 23/16 A299 RMK A01 T02330163  RH  068%=      5-min Rain = 0
KRRS 040630Z 19009KT 23/16 A299 RMK A01 T02320163  RH  068%=      5-min Rain = 0
KRRS 040635Z 19009KT 23/16 A299 RMK A01 T02320163  RH  068%=      5-min Rain = 0
KRRS 040640Z 19008KT 23/16 A299 RMK A01 T02320163  RH  068%=      5-min Rain = 0
KRRS 040645Z 19007KT 23/16 A299 RMK A01 T02300162  RH  069%=      5-min Rain = 0
KRRS 040650Z 19007KT 23/16 A2989 RMK A01 T02290162  RH  069%=      5-min Rain = 0
KRRS 040655Z 20007KT 23/16 A2989 RMK A01 T02260161  RH  070%=      5-min Rain = 0
KRRS 040700Z 20007KT 23/16 A2989 RMK A01 T02250161  RH  070%=      5-min Rain = 0
KRRS 040705Z 21005KT 22/16 A299 RMK A01 T02240160  RH  070%=      5-min Rain = 0
KRRS 040710Z 28004KT 22/16 A2991 RMK A01 T02230160  RH  071%=      5-min Rain = 0
KRRS 040715Z 33006KT 22/16 A2991 RMK A01 T02200159  RH  072%=      5-min Rain = 0
KRRS 040720Z 34006KT 22/16 A2991 RMK A01 T02200159  RH  072%=      5-min Rain = 0
KRRS 040725Z 34005KT 22/16 A2991 RMK A01 T02210158  RH  071%=      5-min Rain = 0
KRRS 040730Z 33006KT 22/16 A2992 RMK A01 T02220157  RH  070%=      5-min Rain = 0
KRRS 040735Z 33007KT 23/16 A2992 RMK A01 T02250157  RH  068%=      5-min Rain = 0
KRRS 040740Z 32006KT 23/16 A2992 RMK A01 T02290158  RH  067%=      5-min Rain = 0
KRRS 040745Z 32004KT 23/16 A2992 RMK A01 T02340158  RH  065%=      5-min Rain = 0
KRRS 040750Z 32004KT 24/16 A2992 RMK A01 T02350159  RH  065%=      5-min Rain = 0
KRRS 040755Z 32004KT 24/16 A2992 RMK A01 T02370160  RH  065%=      5-min Rain = 0
KRRS 040800Z 31005KT 24/16 A2992 RMK A01 T02390160  RH  064%=      5-min Rain = 0
KRRS 040805Z 29006KT 24/16 A2992 RMK A01 T02380161  RH  065%=      5-min Rain = 0
KRRS 040810Z 27006KT 24/16 A2992 RMK A01 T02390161  RH  064%=      5-min Rain = 0
KRRS 040815Z 28006KT 24/16 A2992 RMK A01 T02390161  RH  065%=      5-min Rain = 0
KRRS 040820Z 29006KT 24/16 A2992 RMK A01 T02360161  RH  065%=      5-min Rain = 0
KRRS 040825Z 27005KT 24/16 A2992 RMK A01 T02350160  RH  066%=      5-min Rain = 0
KRRS 040830Z 27006KT 23/16 A2992 RMK A01 T02340160  RH  067%=      5-min Rain = 0
KRRS 040835Z 26007KT 23/16 A2992 RMK A01 T02340161  RH  067%=      5-min Rain = 0
KRRS 040840Z 26007KT 24/16 A2992 RMK A01 T02370162  RH  066%=      5-min Rain = 0
KRRS 040845Z 27009KT 24/16 A2993 RMK A01 T02390162  RH  065%=      5-min Rain = 0
KRRS 040850Z 31018G38KT 24/16 A2996 RMK A01 T02420156  RH  062%=      5-min Rain = 0
KRRS 040855Z 32025G33KT 25/14 A2997 RMK A01 T02470137  RH  052%=      5-min Rain = 0
KRRS 040900Z 33025G33KT 24/13 A2996 RMK A01 T02440134  RH  052%=      5-min Rain = 0
KRRS 040905Z 33021G32KT 24/14 A2997 RMK A01 T02420135  RH  053%=      5-min Rain = 0
KRRS 040910Z 32017G24KT 24/14 A2996 RMK A01 T02350140  RH  057%=      5-min Rain = 0
KRRS 040915Z 33014G20KT 23/15 A2995 RMK A01 T02290146  RH  062%=      5-min Rain = 0
KRRS 040920Z 32012G17KT 22/15 A2995 RMK A01 T02220152  RH  068%=      5-min Rain = 0
KRRS 040925Z 34011G16KT 22/15 A2995 RMK A01 T02180152  RH  069%=      5-min Rain = 0
KRRS 040930Z 33012G17KT 21/15 A2995 RMK A01 T02140154  RH  072%=      5-min Rain = 0
KRRS 040935Z 33012G17KT 21/16 A2995 RMK A01 T02110156  RH  074%=      5-min Rain = 0
KRRS 040940Z 34009G15KT 21/16 A2995 RMK A01 T02100156  RH  075%=      5-min Rain = 0
KRRS 040945Z 36008KT 21/16 A2994 RMK A01 T02100157  RH  075%=      5-min Rain = 0
KRRS 040950Z 00007KT 21/16 A2993 RMK A01 T02110157  RH  075%=      5-min Rain = 0
KRRS 040955Z 33006KT 21/16 A2993 RMK A01 T02120157  RH  074%=      5-min Rain = 0
KRRS 041000Z 32003KT 21/16 A2993 RMK A01 T02130157  RH  074%=      5-min Rain = 0
KRRS 041005Z 35004KT 21/16 A2993 RMK A01 T02140156  RH  073%=      5-min Rain = 0
KRRS 041010Z 33001KT 22/16 A2993 RMK A01 T02150156  RH  072%=      5-min Rain = 0
KRRS 041015Z 22004KT 21/16 A2993 RMK A01 T02140160  RH  075%=      5-min Rain = 0.01
KRRS 041020Z 21002KT 21/17 A2991 RMK A01 T02070165  RH  081%=      5-min Rain = 0.01
KRRS 041025Z 22006KT 20/17 A299 RMK A01 T02020171  RH  087%=      5-min Rain = 0
KRRS 041030Z 19008KT 20/17 A2989 RMK A01 T01970171  RH  089%=      5-min Rain = 0
KRRS 041035Z 21008KT 19/17 A299 RMK A01 T01930172  RH  092%=      5-min Rain = 0
KRRS 041040Z 19009KT 19/17 A2989 RMK A01 T01920171  RH  092%=      5-min Rain = 0
KRRS 041045Z 21007KT 19/17 A2989 RMK A01 T01940171  RH  091%=      5-min Rain = 0
KRRS 041050Z 21009KT 19/17 A2988 RMK A01 T01930171  RH  092%=      5-min Rain = 0
KRRS 041055Z 21010KT 19/17 A2987 RMK A01 T01910170  RH  092%=      5-min Rain = 0
KRRS 041100Z 21009KT 19/17 A2987 RMK A01 T01930168  RH  090%=      5-min Rain = 0
KRRS 041105Z 20010KT 19/17 A2987 RMK A01 T01920167  RH  090%=      5-min Rain = 0
KRRS 041110Z 21010KT 19/17 A2987 RMK A01 T01910166  RH  090%=      5-min Rain = 0
KRRS 041115Z 23010KT 19/16 A2987 RMK A01 T01870164  RH  091%=      5-min Rain = 0
KRRS 041120Z 23009KT 19/16 A2987 RMK A01 T01900160  RH  087%=      5-min Rain = 0
KRRS 041125Z 23009KT 20/16 A2987 RMK A01 T01950158  RH  083%=      5-min Rain = 0
KRRS 041130Z 23009KT 19/16 A2987 RMK A01 T01940158  RH  084%=      5-min Rain = 0
KRRS 041135Z 23009KT 19/16 A2987 RMK A01 T01920157  RH  084%=      5-min Rain = 0
KRRS 041140Z 24010KT 19/16 A2987 RMK A01 T01940156  RH  082%=      5-min Rain = 0
KRRS 041145Z 23012KT 20/16 A2987 RMK A01 T01980155  RH  080%=      5-min Rain = 0
KRRS 041150Z 23012KT 20/15 A2988 RMK A01 T01990154  RH  079%=      5-min Rain = 0
KRRS 041155Z 23011KT 20/15 A2988 RMK A01 T02000154  RH  078%=      5-min Rain = 0
KRRS 041200Z 23010KT 20/15 A2988 RMK A01 T02000153  RH  078%=      5-min Rain = 0
KRRS 041205Z 23009KT 20/15 A2988 RMK A01 T01990152  RH  078%=      5-min Rain = 0
KRRS 041210Z 23009KT 20/15 A2989 RMK A01 T01990152  RH  078%=      5-min Rain = 0
KRRS 041215Z 23009KT 20/15 A2989 RMK A01 T02000153  RH  078%=      5-min Rain = 0
KRRS 041220Z 23009KT 20/15 A2989 RMK A01 T02020153  RH  077%=      5-min Rain = 0
KRRS 041225Z 23009KT 21/15 A2989 RMK A01 T02050154  RH  076%=      5-min Rain = 0
KRRS 041230Z 24009KT 21/15 A2989 RMK A01 T02090154  RH  074%=      5-min Rain = 0
KRRS 041235Z 24010KT 22/15 A2989 RMK A01 T02170153  RH  070%=      5-min Rain = 0
KRRS 041240Z 24010KT 22/15 A299 RMK A01 T02240153  RH  067%=      5-min Rain = 0
KRRS 041245Z 23010KT 23/16 A299 RMK A01 T02270155  RH  067%=      5-min Rain = 0
KRRS 041250Z 24009KT 23/16 A299 RMK A01 T02290158  RH  067%=      5-min Rain = 0
KRRS 041255Z 24009KT 23/16 A299 RMK A01 T02320159  RH  066%=      5-min Rain = 0
KRRS 041300Z 24009KT 24/16 A299 RMK A01 T02350161  RH  066%=      5-min Rain = 0
KRRS 041305Z 24010KT 24/16 A299 RMK A01 T02390163  RH  065%=      5-min Rain = 0
KRRS 041310Z 24010KT 24/17 A299 RMK A01 T02440165  RH  064%=      5-min Rain = 0
KRRS 041315Z 24010KT 25/17 A299 RMK A01 T02490168  RH  064%=      5-min Rain = 0
KRRS 041320Z 24011KT 25/17 A2991 RMK A01 T02530170  RH  063%=      5-min Rain = 0
KRRS 041325Z 24011G16KT 26/17 A2991 RMK A01 T02580170  RH  061%=      5-min Rain = 0
KRRS 041330Z 24013G19KT 26/17 A2991 RMK A01 T02620170  RH  060%=      5-min Rain = 0
KRRS 041335Z 24012KT 27/17 A2991 RMK A01 T02650172  RH  059%=      5-min Rain = 0
KRRS 041340Z 24011G16KT 27/17 A2991 RMK A01 T02680173  RH  059%=      5-min Rain = 0
KRRS 041345Z 25014G19KT 27/17 A2991 RMK A01 T02720173  RH  057%=      5-min Rain = 0
KRRS 041350Z 25013G18KT 28/18 A2991 RMK A01 T02760175  RH  057%=      5-min Rain = 0
KRRS 041355Z 25013KT 28/18 A2991 RMK A01 T02780175  RH  056%=      5-min Rain = 0
KRRS 041400Z 25012G17KT 28/18 A2991 RMK A01 T02800176  RH  056%=      5-min Rain = 0
KRRS 041405Z 25012KT 28/18 A2992 RMK A01 T02820178  RH  056%=      5-min Rain = 0
KRRS 041410Z 26012G19KT 29/18 A2992 RMK A01 T02850178  RH  055%=      5-min Rain = 0
KRRS 041415Z 25014G21KT 29/18 A2992 RMK A01 T02860176  RH  054%=      5-min Rain = 0
KRRS 041420Z 25015KT 29/17 A2992 RMK A01 T02860174  RH  054%=      5-min Rain = 0
KRRS 041425Z 25012G17KT 29/18 A2992 RMK A01 T02880177  RH  054%=      5-min Rain = 0
KRRS 041430Z 25014G20KT 29/18 A2992 RMK A01 T02920177  RH  053%=      5-min Rain = 0
KRRS 041435Z 24013KT 29/18 A2992 RMK A01 T02910177  RH  053%=      5-min Rain = 0
KRRS 041440Z 24012G17KT 29/18 A2992 RMK A01 T02940180  RH  053%=      5-min Rain = 0
KRRS 041445Z 24011G16KT 30/18 A2993 RMK A01 T02980180  RH  052%=      5-min Rain = 0
KRRS 041450Z 24013KT 30/18 A2993 RMK A01 T02970179  RH  052%=      5-min Rain = 0
KRRS 041455Z 24014G19KT 30/18 A2993 RMK A01 T02980179  RH  051%=      5-min Rain = 0
KRRS 041500Z 24013KT 30/18 A2993 RMK A01 T02980179  RH  051%=      5-min Rain = 0
KRRS 041505Z 24013KT 30/18 A2993 RMK A01 T03010180  RH  051%=      5-min Rain = 0
KRRS 041510Z 23012G17KT 30/18 A2993 RMK A01 T03020181  RH  051%=      5-min Rain = 0
KRRS 041515Z 23012KT 30/18 A2993 RMK A01 T03040181  RH  050%=      5-min Rain = 0
KRRS 041520Z 25013KT 30/18 A2993 RMK A01 T03040180  RH  050%=      5-min Rain = 0
KRRS 041525Z 25010KT 31/18 A2993 RMK A01 T03090182  RH  049%=      5-min Rain = 0
KRRS 041530Z 24011KT 31/18 A2993 RMK A01 T03110181  RH  049%=      5-min Rain = 0
KRRS 041535Z 25012KT 31/18 A2993 RMK A01 T03100180  RH  048%=      5-min Rain = 0
KRRS 041540Z 23010KT 31/18 A2993 RMK A01 T03120180  RH  048%=      5-min Rain = 0
KRRS 041545Z 22009G14KT 31/18 A2994 RMK A01 T03140180  RH  047%=      5-min Rain = 0
KRRS 041550Z 22008G13KT 32/18 A2994 RMK A01 T03170180  RH  046%=      5-min Rain = 0
KRRS 041555Z 22007G12KT 32/18 A2994 RMK A01 T03170176  RH  045%=      5-min Rain = 0
KRRS 041600Z 21007KT 32/18 A2994 RMK A01 T03160176  RH  045%=      5-min Rain = 0
KRRS 041605Z 21007KT 32/17 A2994 RMK A01 T03190173  RH  044%=      5-min Rain = 0
KRRS 041610Z 21005KT 32/18 A2994 RMK A01 T03200175  RH  044%=      5-min Rain = 0
KRRS 041615Z 22005G10KT 32/17 A2994 RMK A01 T03220174  RH  044%=      5-min Rain = 0
KRRS 041620Z 23006KT 32/18 A2994 RMK A01 T03240177  RH  044%=      5-min Rain = 0
KRRS 041625Z 19006G11KT 33/18 A2994 RMK A01 T03250176  RH  043%=      5-min Rain = 0
KRRS 041630Z 18008G13KT 33/17 A2994 RMK A01 T03270172  RH  042%=      5-min Rain = 0
KRRS 041635Z 19007G12KT 33/17 A2994 RMK A01 T03270172  RH  041%=      5-min Rain = 0
KRRS 041640Z 20008KT 33/17 A2994 RMK A01 T03280170  RH  041%=      5-min Rain = 0
KRRS 041645Z 21004G13KT 33/17 A2994 RMK A01 T03280167  RH  040%=      5-min Rain = 0
KRRS 041650Z 22007G12KT 33/17 A2994 RMK A01 T03330172  RH  040%=      5-min Rain = 0
KRRS 041655Z 24005G10KT 33/17 A2994 RMK A01 T03330172  RH  040%=      5-min Rain = 0
KRRS 041700Z 22008KT 34/17 A2994 RMK A01 T03350168  RH  039%=      5-min Rain = 0
KRRS 041705Z 20006KT 34/17 A2994 RMK A01 T03370169  RH  039%=      5-min Rain = 0
KRRS 041710Z 19006G17KT 33/17 A2994 RMK A01 T03340169  RH  039%=      5-min Rain = 0
KRRS 041715Z 22009KT 34/17 A2994 RMK A01 T03350167  RH  039%=      5-min Rain = 0
KRRS 041720Z 24006KT 33/16 A2994 RMK A01 T03310162  RH  038%=      5-min Rain = 0
KRRS 041725Z 24006KT 33/17 A2993 RMK A01 T03330165  RH  038%=      5-min Rain = 0
KRRS 041730Z 22005G11KT 34/16 A2993 RMK A01 T03350164  RH  038%=      5-min Rain = 0
KRRS 041735Z 17006KT 33/16 A2993 RMK A01 T03330162  RH  038%=      5-min Rain = 0
KRRS 041740Z 18008KT 34/16 A2993 RMK A01 T03380162  RH  037%=      5-min Rain = 0
KRRS 041745Z 19007G12KT 34/16 A2993 RMK A01 T03400157  RH  035%=      5-min Rain = 0
KRRS 041750Z 20009KT 34/16 A2993 RMK A01 T03400157  RH  035%=      5-min Rain = 0
KRRS 041755Z 23008KT 35/16 A2993 RMK A01 T03450157  RH  034%=      5-min Rain = 0
KRRS 041800Z 22007G14KT 35/16 A2992 RMK A01 T03450160  RH  035%=      5-min Rain = 0
KRRS 041805Z 21009G14KT 35/16 A2992 RMK A01 T03480158  RH  034%=      5-min Rain = 0
KRRS 041810Z 18009G14KT 35/16 A2992 RMK A01 T03500163  RH  035%=      5-min Rain = 0
KRRS 041815Z 18008G17KT 35/16 A2992 RMK A01 T03480161  RH  034%=      5-min Rain = 0
KRRS 041820Z 17012KT 35/17 A2992 RMK A01 T03500173  RH  037%=      5-min Rain = 0
KRRS 041825Z 15012KT 35/17 A2992 RMK A01 T03490173  RH  037%=      5-min Rain = 0
KRRS 041830Z 17015G21KT 35/17 A2992 RMK A01 T03490167  RH  036%=      5-min Rain = 0
KRRS 041835Z 16013G18KT 35/17 A2992 RMK A01 T03480166  RH  036%=      5-min Rain = 0
KRRS 041840Z 17015G22KT 35/16 A2991 RMK A01 T03500163  RH  035%=      5-min Rain = 0
KRRS 041845Z 18013G21KT 35/16 A2991 RMK A01 T03520161  RH  034%=      5-min Rain = 0
KRRS 041850Z 18013G19KT 35/16 A2991 RMK A01 T03540162  RH  034%=      5-min Rain = 0
KRRS 041855Z 18013KT 36/16 A2991 RMK A01 T03550162  RH  033%=      5-min Rain = 0
KRRS 041900Z 20012G18KT 35/16 A2991 RMK A01 T03530158  RH  033%=      5-min Rain = 0
KRRS 041905Z 18014G19KT 35/15 A2991 RMK A01 T03540153  RH  032%=      5-min Rain = 0
KRRS 041910Z 18013G19KT 35/15 A2991 RMK A01 T03520153  RH  032%=      5-min Rain = 0
KRRS 041915Z 17013G20KT 35/15 A299 RMK A01 T03520153  RH  032%=      5-min Rain = 0
KRRS 041920Z 17012G17KT 35/15 A299 RMK A01 T03500154  RH  032%=      5-min Rain = 0
KRRS 041925Z 18013G18KT 35/16 A299 RMK A01 T03500158  RH  034%=      5-min Rain = 0
KRRS 041930Z 18013G20KT 35/16 A299 RMK A01 T03520159  RH  033%=      5-min Rain = 0
KRRS 041935Z 19013G19KT 36/16 A2989 RMK A01 T03550158  RH  033%=      5-min Rain = 0
KRRS 041940Z 18013G19KT 35/15 A2989 RMK A01 T03540153  RH  032%=      5-min Rain = 0
KRRS 041945Z 18013G18KT 36/16 A2989 RMK A01 T03580156  RH  032%=      5-min Rain = 0
KRRS 041950Z 19015G23KT 36/15 A2989 RMK A01 T03560150  RH  031%=      5-min Rain = 0
KRRS 041955Z 18012G20KT 36/15 A2989 RMK A01 T03550147  RH  030%=      5-min Rain = 0
KRRS 042000Z 17012G18KT 36/15 A2989 RMK A01 T03560146  RH  030%=      5-min Rain = 0
KRRS 042005Z 18013G20KT 36/15 A2988 RMK A01 T03560151  RH  031%=      5-min Rain = 0
KRRS 042010Z 18012G21KT 36/15 A2988 RMK A01 T03570150  RH  030%=      5-min Rain = 0
KRRS 042015Z 18013G19KT 36/15 A2988 RMK A01 T03590153  RH  031%=      5-min Rain = 0
KRRS 042020Z 19012G20KT 36/15 A2987 RMK A01 T03610149  RH  030%=      5-min Rain = 0
KRRS 042025Z 19013G20KT 36/15 A2987 RMK A01 T03620148  RH  029%=      5-min Rain = 0
KRRS 042030Z 20014G20KT 36/15 A2987 RMK A01 T03600147  RH  029%=      5-min Rain = 0
KRRS 042035Z 19014KT 36/15 A2986 RMK A01 T03570148  RH  030%=      5-min Rain = 0
KRRS 042040Z 17013G19KT 36/15 A2986 RMK A01 T03570151  RH  031%=      5-min Rain = 0
KRRS 042045Z 18011G17KT 36/15 A2986 RMK A01 T03580147  RH  030%=      5-min Rain = 0
KRRS 042050Z 19012G18KT 36/15 A2985 RMK A01 T03610149  RH  030%=      5-min Rain = 0
KRRS 042055Z 17014G19KT 36/15 A2985 RMK A01 T03640149  RH  029%=      5-min Rain = 0
KRRS 042100Z 17014G23KT 36/15 A2984 RMK A01 T03640146  RH  029%=      5-min Rain = 0
KRRS 042105Z 18016G23KT 37/15 A2984 RMK A01 T03650147  RH  029%=      5-min Rain = 0
KRRS 042110Z 18014G20KT 36/15 A2984 RMK A01 T03560146  RH  030%=      5-min Rain = 0
KRRS 042115Z 19013KT 35/15 A2984 RMK A01 T03540147  RH  030%=      5-min Rain = 0
KRRS 042120Z 20013KT 35/14 A2985 RMK A01 T03530143  RH  030%=      5-min Rain = 0
KRRS 042125Z 19011G16KT 35/15 A2985 RMK A01 T03500145  RH  031%=      5-min Rain = 0
KRRS 042130Z 18010G15KT 35/15 A2986 RMK A01 T03490146  RH  031%=      5-min Rain = 0
KRRS 042135Z 17010G17KT 35/15 A2986 RMK A01 T03460146  RH  032%=      5-min Rain = 0
KRRS 042140Z 18013KT 35/15 A2985 RMK A01 T03460145  RH  031%=      5-min Rain = 0
KRRS 042145Z 17011G18KT 34/15 A2985 RMK A01 T03440147  RH  032%=      5-min Rain = 0
KRRS 042150Z 17011KT 34/15 A2984 RMK A01 T03410147  RH  033%=      5-min Rain = 0
KRRS 042155Z 17011G16KT 34/15 A2984 RMK A01 T03390147  RH  033%=      5-min Rain = 0
KRRS 042200Z 16010KT 34/15 A2984 RMK A01 T03380147  RH  033%=      5-min Rain = 0
KRRS 042205Z 16011KT 34/15 A2984 RMK A01 T03370145  RH  033%=      5-min Rain = 0
KRRS 042210Z 17011KT 34/14 A2983 RMK A01 T03360144  RH  033%=      5-min Rain = 0
KRRS 042215Z 17010G17KT 34/14 A2983 RMK A01 T03350143  RH  033%=      5-min Rain = 0
KRRS 042220Z 17011G16KT 33/14 A2984 RMK A01 T03340141  RH  033%=      5-min Rain = 0
KRRS 042225Z 17009G15KT 33/14 A2984 RMK A01 T03330138  RH  032%=      5-min Rain = 0
KRRS 042230Z 17008G14KT 33/14 A2984 RMK A01 T03330138  RH  032%=      5-min Rain = 0
KRRS 042235Z 16008KT 33/14 A2983 RMK A01 T03320138  RH  032%=      5-min Rain = 0
KRRS 042240Z 15007KT 33/14 A2984 RMK A01 T03300139  RH  033%=      5-min Rain = 0
KRRS 042245Z 15006KT 33/14 A2984 RMK A01 T03290141  RH  033%=      5-min Rain = 0
KRRS 042250Z 13007KT 33/14 A2984 RMK A01 T03270141  RH  034%=      5-min Rain = 0
KRRS 042255Z 12006KT 33/14 A2984 RMK A01 T03250141  RH  034%=      5-min Rain = 0
KRRS 042300Z 13004KT 32/14 A2986 RMK A01 T03240143  RH  035%=      5-min Rain = 0
KRRS 042305Z 12001KT 32/15 A2986 RMK A01 T03230145  RH  036%=      5-min Rain = 0
KRRS 042310Z 04004KT 32/15 A2986 RMK A01 T03190153  RH  038%=      5-min Rain = 0
KRRS 042315Z 03008KT 31/17 A2986 RMK A01 T03090167  RH  045%=      5-min Rain = 0
KRRS 042320Z 04010G18KT 29/18 A2987 RMK A01 T02940181  RH  053%=      5-min Rain = 0
KRRS 042325Z 00016G26KT 28/16 A2989 RMK A01 T02790162  RH  052%=      5-min Rain = 0
KRRS 042330Z 34018G28KT 25/17 A2993 RMK A01 T02500170  RH  065%=      5-min Rain = 0.01
KRRS 042335Z 33019G32KT 24/17 A2994 RMK A01 T02350172  RH  071%=      5-min Rain = 0.05
KRRS 042340Z 03013G23KT 23/17 A2993 RMK A01 T02270174  RH  076%=      5-min Rain = 0.04
KRRS 042345Z 05010G15KT 22/18 A299 RMK A01 T02180178  RH  082%=      5-min Rain = 0.03
KRRS 042350Z 07016G22KT 21/18 A2987 RMK A01 T02110180  RH  087%=      5-min Rain = 0
KRRS 042355Z 09015KT 21/18 A2987 RMK A01 T02080181  RH  089%=      5-min Rain = 0.01
KRRS 050000Z 10017G23KT 21/17 A2984 RMK A01 T02130174  RH  082%=      5-min Rain = 0
KRRS 050005Z 13015KT 22/18 A2982 RMK A01 T02170176  RH  081%=      5-min Rain = 0
KRRS 050010Z 13013KT 22/17 A2982 RMK A01 T02180172  RH  079%=      5-min Rain = 0
KRRS 050015Z 15011KT 22/17 A2983 RMK A01 T02190170  RH  077%=      5-min Rain = 0
KRRS 050020Z 20010KT 22/18 A2985 RMK A01 T02160177  RH  083%=      5-min Rain = 0
KRRS 050025Z 17011KT 22/17 A2983 RMK A01 T02150174  RH  082%=      5-min Rain = 0
KRRS 050030Z 16009KT 22/17 A2983 RMK A01 T02210172  RH  078%=      5-min Rain = 0
KRRS 050035Z 17007KT 22/18 A2983 RMK A01 T02160176  RH  082%=      5-min Rain = 0
KRRS 050040Z 19006KT 21/18 A2983 RMK A01 T02130178  RH  085%=      5-min Rain = 0
KRRS 050045Z 15008KT 21/18 A2982 RMK A01 T02130178  RH  084%=      5-min Rain = 0
KRRS 050050Z 17007KT 22/18 A2981 RMK A01 T02150178  RH  084%=      5-min Rain = 0
KRRS 050055Z 17007KT 22/18 A2981 RMK A01 T02150179  RH  084%=      5-min Rain = 0
KRRS 050100Z 14002KT 22/18 A2981 RMK A01 T02180179  RH  083%=      5-min Rain = 0
KRRS 050105Z 02005KT 22/18 A2982 RMK A01 T02180182  RH  084%=      5-min Rain = 0
KRRS 050110Z 01007KT 21/18 A2983 RMK A01 T02140181  RH  086%=      5-min Rain = 0
KRRS 050115Z 32002KT 22/18 A2983 RMK A01 T02180181  RH  084%=      5-min Rain = 0
KRRS 050120Z 18001KT 22/18 A2984 RMK A01 T02210183  RH  084%=      5-min Rain = 0
KRRS 050125Z 20002KT 22/19 A2985 RMK A01 T02200187  RH  086%=      5-min Rain = 0
KRRS 050130Z 28002KT 22/19 A2986 RMK A01 T02200187  RH  087%=      5-min Rain = 0
KRRS 050135Z 10002KT 22/19 A2984 RMK A01 T02190186  RH  086%=      5-min Rain = 0
KRRS 050140Z 18002KT 22/19 A2983 RMK A01 T02190190  RH  088%=      5-min Rain = 0.01
KRRS 050145Z 22004KT 22/19 A2983 RMK A01 T02170193  RH  091%=      5-min Rain = 0
KRRS 050150Z 19005KT 22/19 A2983 RMK A01 T02150191  RH  091%=      5-min Rain = 0
KRRS 050155Z 19006KT 22/19 A2984 RMK A01 T02180191  RH  090%=      5-min Rain = 0
KRRS 050200Z 20005KT 22/19 A2983 RMK A01 T02210190  RH  087%=      5-min Rain = 0
KRRS 050205Z 20005KT 22/19 A2983 RMK A01 T02200191  RH  088%=      5-min Rain = 0
KRRS 050210Z 18004KT 22/19 A2983 RMK A01 T02210188  RH  086%=      5-min Rain = 0
KRRS 050215Z 14007KT 22/19 A2985 RMK A01 T02230191  RH  087%=      5-min Rain = 0
KRRS 050220Z 14006KT 23/19 A2985 RMK A01 T02270189  RH  083%=      5-min Rain = 0
KRRS 050225Z 11006KT 23/19 A2985 RMK A01 T02330190  RH  081%=      5-min Rain = 0
KRRS 050230Z 14004KT 23/19 A2985 RMK A01 T02300193  RH  084%=      5-min Rain = 0
KRRS 050235Z 10004KT 23/19 A2986 RMK A01 T02290194  RH  085%=      5-min Rain = 0
KRRS 050240Z 05004G9KT 23/20 A2988 RMK A01 T02260195  RH  087%=      5-min Rain = 0
KRRS 050245Z 03010G16KT 23/19 A2991 RMK A01 T02250194  RH  087%=      5-min Rain = 0
KRRS 050250Z 03014G20KT 22/19 A2994 RMK A01 T02230191  RH  087%=      5-min Rain = 0
KRRS 050255Z 02007G13KT 22/18 A2994 RMK A01 T02220183  RH  083%=      5-min Rain = 0
KRRS 050300Z 12009G15KT 23/18 A2991 RMK A01 T02250177  RH  078%=      5-min Rain = 0
KRRS 050305Z 01004G9KT 23/18 A2994 RMK A01 T02270177  RH  078%=      5-min Rain = 0
KRRS 050310Z 01002KT 22/18 A2993 RMK A01 T02240178  RH  079%=      5-min Rain = 0
KRRS 050315Z 09015G25KT 22/18 A299 RMK A01 T02240175  RH  078%=      5-min Rain = 0
KRRS 050320Z 11017G26KT 22/17 A2988 RMK A01 T02230174  RH  078%=      5-min Rain = 0
KRRS 050325Z 15017G25KT 22/17 A2988 RMK A01 T02220174  RH  078%=      5-min Rain = 0
KRRS 050330Z 16018G27KT 22/18 A2986 RMK A01 T02210175  RH  079%=      5-min Rain = 0
KRRS 050335Z 16023G31KT 23/17 A2981 RMK A01 T02250173  RH  076%=      5-min Rain = 0
KRRS 050340Z 15018G34KT 23/18 A2982 RMK A01 T02280175  RH  076%=      5-min Rain = 0
KRRS 050345Z 13014G21KT 23/18 A2985 RMK A01 T02300176  RH  075%=      5-min Rain = 0
KRRS 050350Z 14016G22KT 23/18 A2984 RMK A01 T02290177  RH  076%=      5-min Rain = 0
KRRS 050355Z 15023G30KT 23/17 A2981 RMK A01 T02320174  RH  074%=      5-min Rain = 0
KRRS 050400Z 11015G25KT 24/17 A2983 RMK A01 T02370173  RH  071%=      5-min Rain = 0
KRRS 050405Z 06016G24KT 23/17 A2986 RMK A01 T02320172  RH  072%=      5-min Rain = 0
KRRS 050410Z 09018G27KT 23/17 A2986 RMK A01 T02340168  RH  070%=      5-min Rain = 0
KRRS 050415Z 08012G18KT 24/17 A2987 RMK A01 T02350167  RH  069%=      5-min Rain = 0
KRRS 050420Z 11016G21KT 23/17 A2986 RMK A01 T02300169  RH  072%=      5-min Rain = 0
KRRS 050425Z 10014G21KT 23/17 A2987 RMK A01 T02310170  RH  072%=      5-min Rain = 0
KRRS 050430Z 12013KT 23/17 A2987 RMK A01 T02320170  RH  071%=      5-min Rain = 0
KRRS 050435Z 14010G16KT 23/17 A2988 RMK A01 T02340168  RH  070%=      5-min Rain = 0
KRRS 050440Z 14012KT 24/17 A2989 RMK A01 T02350168  RH  069%=      5-min Rain = 0
KRRS 050445Z 17011KT 24/17 A2989 RMK A01 T02360168  RH  069%=      5-min Rain = 0
KRRS 050450Z 16009KT 24/17 A2988 RMK A01 T02360168  RH  069%=      5-min Rain = 0
KRRS 050455Z 17009KT 24/17 A2989 RMK A01 T02370167  RH  068%=      5-min Rain = 0

Page generated in 0.0165 seconds.